Time;durP1;ratioP1;P1;durP2;ratioP2;P2;SDS_P1;SDS_P2;PMS_P1;PMS_P2;Temp;Humidity;BMP_temperature;BMP_pressure;BME280_temperature;BME280_humidity;BME280_pressure;Samples;Min_cycle;Max_cycle;Signal;HPM_P1;HPM_P2
2022/04/12 00:00:10;;;;;;;9.93;7.60;;;;;;;7.85;62.17;101149.75;1037770;28;20384;-80
2022/04/12 00:00:42;;;;;;;8.65;7.18;;;;;;;7.88;62.44;101149.34;1041722;28;20374;-80
2022/04/12 00:01:14;;;;;;;9.05;6.15;;;;;;;7.85;61.94;101150.56;1041539;28;20303;-80
2022/04/12 00:01:49;;;;;;;8.23;6.93;;;;;;;7.97;61.33;101137.63;1041935;28;20296;-80
2022/04/12 00:02:21;;;;;;;9.15;6.72;;;;;;;7.97;61.88;101143.75;1045463;28;20692;-80
2022/04/12 00:02:52;;;;;;;9.27;7.43;;;;;;;8.06;61.07;101147.06;1046162;28;20393;-80
2022/04/12 00:03:25;;;;;;;9.30;7.63;;;;;;;8.06;61.00;101141.78;1043138;28;20390;-80
2022/04/12 00:04:00;;;;;;;11.45;8.48;;;;;;;8.12;60.76;101142.81;1048247;28;20314;-80
2022/04/12 00:04:31;;;;;;;9.18;7.25;;;;;;;8.21;60.82;101139.00;1048954;28;20290;-80
2022/04/12 00:05:03;;;;;;;8.98;7.32;;;;;;;8.21;60.30;101145.13;1049767;28;20352;-80
2022/04/12 00:05:55;;;;;;;13.10;7.80;;;;;;;8.05;61.32;101138.28;1041013;28;20323;-80
2022/04/12 00:06:27;;;;;;;8.30;6.82;;;;;;;8.13;60.79;101134.66;1036929;28;20307;-80
2022/04/12 00:06:58;;;;;;;9.00;7.55;;;;;;;8.10;60.80;101135.06;1048156;28;20649;-80
2022/04/12 00:07:30;;;;;;;8.55;7.45;;;;;;;7.99;61.48;101136.41;1049458;28;20704;-80
2022/04/12 00:08:02;;;;;;;8.65;7.05;;;;;;;8.04;61.19;101127.88;1052939;28;20352;-80
2022/04/12 00:08:34;;;;;;;8.27;7.47;;;;;;;8.08;60.96;101134.44;1047197;28;20289;-80
2022/04/12 00:09:06;;;;;;;11.18;7.78;;;;;;;8.10;60.33;101127.09;1048848;28;20306;-80
2022/04/12 00:09:37;;;;;;;11.93;7.82;;;;;;;8.14;60.38;101125.69;1048907;28;20314;-80
2022/04/12 00:10:10;;;;;;;8.80;7.90;;;;;;;8.17;60.54;101127.16;1045231;28;20307;-80
2022/04/12 00:10:42;;;;;;;11.93;8.23;;;;;;;8.15;60.82;101116.72;1048954;28;20329;-80
2022/04/12 00:11:13;;;;;;;7.43;6.82;;;;;;;8.15;61.21;101134.47;1048863;28;20295;-80
2022/04/12 00:11:45;;;;;;;9.70;8.07;;;;;;;8.00;61.03;101131.94;1047477;28;20291;-80
2022/04/12 00:12:17;;;;;;;8.88;7.88;;;;;;;8.05;61.09;101121.56;1048758;28;20302;-79
2022/04/12 00:12:48;;;;;;;9.13;7.97;;;;;;;8.14;60.67;101117.75;1048879;28;20282;-80
2022/04/12 00:13:20;;;;;;;9.15;8.00;;;;;;;8.11;60.77;101126.09;1039051;28;20315;-80
2022/04/12 00:13:52;;;;;;;8.75;7.78;;;;;;;8.03;61.14;101119.09;1036447;28;20306;-80
2022/04/12 00:14:24;;;;;;;8.88;7.97;;;;;;;8.04;60.48;101117.25;1036468;28;20666;-80
2022/04/12 00:14:55;;;;;;;12.15;8.00;;;;;;;8.04;60.45;101123.38;1037160;28;20287;-80
2022/04/12 00:15:27;;;;;;;11.27;7.65;;;;;;;8.14;60.65;101116.91;1040562;28;20311;-80
2022/04/12 00:15:59;;;;;;;8.10;7.25;;;;;;;8.04;60.88;101120.75;1044795;28;20280;-80
2022/04/12 00:16:30;;;;;;;8.60;7.70;;;;;;;8.02;61.07;101116.63;1045297;28;20366;-80
2022/04/12 00:19:35;;;;;;;8.02;7.22;;;;;;;8.02;61.54;101116.63;1050984;28;20058;-79
2022/04/12 00:20:07;;;;;;;9.15;7.43;;;;;;;8.05;61.32;101117.06;1053320;28;20128;-80
2022/04/12 00:20:40;;;;;;;7.78;6.45;;;;;;;7.96;61.13;101120.06;1056321;28;20317;-80
2022/04/12 00:21:11;;;;;;;9.63;7.43;;;;;;;7.90;61.85;101126.13;1055895;28;20290;-80
2022/04/12 00:21:43;;;;;;;7.75;6.25;;;;;;;7.94;61.01;101116.75;1048730;28;20291;-80
2022/04/12 00:22:14;;;;;;;9.27;6.47;;;;;;;8.04;61.20;101112.78;1044731;28;20291;-81
2022/04/12 00:22:46;;;;;;;7.28;6.40;;;;;;;8.07;61.12;101116.88;1045199;28;20661;-80
2022/04/12 00:23:18;;;;;;;9.27;7.13;;;;;;;8.03;61.48;101110.31;1045232;28;20303;-80
2022/04/12 00:23:50;;;;;;;10.70;6.35;;;;;;;7.93;61.31;101118.59;1045283;28;20311;-80
2022/04/12 00:24:21;;;;;;;9.38;8.13;;;;;;;7.95;60.97;101118.44;1048654;28;20301;-80
2022/04/12 00:24:54;;;;;;;7.93;7.13;;;;;;;8.02;60.86;101114.81;1048844;28;20290;-80
2022/04/12 00:25:27;;;;;;;7.28;6.10;;;;;;;7.99;60.81;101109.06;1049483;28;20298;-80
2022/04/12 00:25:58;;;;;;;8.02;7.22;;;;;;;7.93;60.80;101109.81;1048695;28;20305;-79
2022/04/12 00:26:30;;;;;;;8.32;6.78;;;;;;;8.06;60.77;101110.75;1049343;28;20350;-80
2022/04/12 00:27:02;;;;;;;8.52;7.03;;;;;;;8.02;60.96;101106.03;1041272;28;20296;-80
2022/04/12 00:27:33;;;;;;;8.45;5.65;;;;;;;7.96;61.10;101109.47;1036847;28;20317;-80
2022/04/12 00:28:06;;;;;;;10.30;6.97;;;;;;;7.94;60.82;101112.31;1035969;28;20432;-79
2022/04/12 00:28:38;;;;;;;7.82;6.93;;;;;;;7.95;61.36;101118.44;1037248;28;20633;-79
2022/04/12 00:29:10;;;;;;;8.95;7.60;;;;;;;7.95;61.57;101113.13;1041527;28;20315;-79
2022/04/12 00:29:41;;;;;;;9.20;8.27;;;;;;;7.95;60.95;101118.44;1037925;28;20305;-79
2022/04/12 00:30:13;;;;;;;9.68;7.60;;;;;;;7.97;61.14;101114.56;1040845;28;20288;-80
2022/04/12 00:30:47;;;;;;;9.70;7.30;;;;;;;7.85;61.64;101120.56;1044839;28;20421;-79
2022/04/12 00:31:19;;;;;;;10.98;7.57;;;;;;;7.95;61.36;101123.72;1044471;28;20793;-79
2022/04/12 00:31:51;;;;;;;7.25;6.60;;;;;;;7.90;61.28;101120.81;1036735;28;20862;-79
2022/04/12 00:32:22;;;;;;;12.90;7.57;;;;;;;8.00;61.22;101114.19;1039995;28;20308;-80
2022/04/12 00:32:55;;;;;;;9.63;8.35;;;;;;;7.91;61.27;101114.50;1040446;28;20292;-79
2022/04/12 00:33:26;;;;;;;11.77;8.50;;;;;;;7.85;61.62;101117.91;1041051;28;20300;-79
2022/04/12 00:33:58;;;;;;;9.98;8.15;;;;;;;7.91;61.41;101122.44;1051670;28;20400;-79
2022/04/12 00:34:30;;;;;;;9.20;8.30;;;;;;;8.05;60.98;101114.41;1049628;28;20294;-80
2022/04/12 00:35:02;;;;;;;10.10;8.00;;;;;;;7.99;60.77;101111.72;1051016;28;20294;-79
2022/04/12 00:35:34;;;;;;;8.90;7.97;;;;;;;7.89;61.54;101120.00;1048167;28;20795;-80
2022/04/12 00:36:06;;;;;;;9.60;7.80;;;;;;;7.97;61.38;101121.72;1046901;28;20294;-79
2022/04/12 00:36:38;;;;;;;10.98;7.38;;;;;;;8.00;61.56;101118.66;1042961;28;20417;-79
2022/04/12 00:37:09;;;;;;;11.02;7.30;;;;;;;7.94;61.22;101119.41;1046875;28;20706;-79
2022/04/12 00:37:41;;;;;;;10.30;7.72;;;;;;;7.96;61.52;101114.75;1043982;28;20302;-79
2022/04/12 00:38:22;;;;;;;8.27;7.50;;;;;;;7.92;61.04;101113.47;1036837;28;20341;-80
2022/04/12 00:38:54;;;;;;;10.30;7.90;;;;;;;7.85;61.77;101117.91;1040738;28;20296;-79
2022/04/12 00:39:25;;;;;;;12.82;7.10;;;;;;;7.89;61.80;101124.47;1043217;28;20300;-79
2022/04/12 00:39:57;;;;;;;11.02;6.95;;;;;;;7.88;62.14;101122.84;1047099;28;20298;-79
2022/04/12 00:40:30;;;;;;;12.00;8.13;;;;;;;7.89;61.77;101119.16;1050919;28;20290;-80
2022/04/12 00:41:04;;;;;;;9.80;7.75;;;;;;;7.86;61.67;101115.06;1052945;28;20309;-80
2022/04/12 00:41:36;;;;;;;9.57;6.78;;;;;;;7.97;61.48;101127.00;1052944;28;20369;-80
2022/04/12 00:42:08;;;;;;;8.38;7.18;;;;;;;7.83;62.04;101122.59;1045871;28;20792;-80
2022/04/12 00:42:40;;;;;;;8.73;7.05;;;;;;;7.85;61.36;101117.91;1037317;28;20277;-80
2022/04/12 00:43:11;;;;;;;12.40;7.25;;;;;;;7.82;61.73;101120.97;1032193;28;20305;-80
2022/04/12 00:43:43;;;;;;;11.95;7.53;;;;;;;7.83;61.68;101119.94;1035128;28;20302;-80
2022/04/12 00:44:14;;;;;;;8.73;7.82;;;;;;;7.87;61.53;101116.72;1045074;28;20302;-79
2022/04/12 00:44:46;;;;;;;8.45;7.15;;;;;;;7.94;61.64;101119.41;1045229;28;20306;-80
2022/04/12 00:45:18;;;;;;;11.10;8.05;;;;;;;7.87;61.52;101118.53;1044535;28;20314;-79
2022/04/12 00:45:49;;;;;;;9.02;7.38;;;;;;;7.87;61.26;101116.72;1041012;28;20809;-79
2022/04/12 00:46:21;;;;;;;9.30;8.00;;;;;;;7.86;62.00;101114.25;1038381;28;20308;-80
2022/04/12 00:46:53;;;;;;;9.60;8.00;;;;;;;7.82;62.23;101119.13;1039955;28;20296;-80
2022/04/12 00:47:25;;;;;;;8.75;7.80;;;;;;;7.78;62.09;101117.06;1035828;28;20309;-79
2022/04/12 00:47:56;;;;;;;10.50;8.45;;;;;;;7.70;62.48;101110.88;1043639;28;20295;-80
2022/04/12 00:48:29;;;;;;;12.30;8.02;;;;;;;7.73;62.53;101114.97;1043640;28;20338;-79
2022/04/12 00:49:00;;;;;;;8.70;7.90;;;;;;;7.71;62.29;101117.81;1035007;28;20352;-79
2022/04/12 00:49:32;;;;;;;8.60;7.80;;;;;;;7.66;62.58;101119.38;1044462;28;20299;-79
2022/04/12 00:50:04;;;;;;;10.52;7.75;;;;;;;7.68;62.56;101118.22;1044811;28;20303;-80
2022/04/12 00:50:36;;;;;;;9.57;7.28;;;;;;;7.57;62.53;101120.53;1042857;28;20307;-80
2022/04/12 00:51:08;;;;;;;10.50;7.93;;;;;;;7.52;63.02;101118.44;1042998;28;20303;-80
2022/04/12 00:51:40;;;;;;;10.98;8.60;;;;;;;7.53;62.76;101120.09;1039749;28;20355;-79
2022/04/12 00:52:11;;;;;;;9.45;7.93;;;;;;;7.56;62.54;101114.41;1036722;28;20293;-79
2022/04/12 00:52:49;;;;;;;8.75;7.93;;;;;;;7.59;63.39;101114.03;1037563;28;20358;-80
2022/04/12 00:53:20;;;;;;;10.80;8.02;;;;;;;7.55;62.96;101109.28;1039801;28;20292;-79
2022/04/12 00:53:52;;;;;;;11.23;7.80;;;;;;;7.48;63.42;101113.72;1041262;28;20295;-79
2022/04/12 00:54:25;;;;;;;8.35;7.55;;;;;;;7.53;62.88;101108.66;1041625;28;20809;-79
2022/04/12 00:54:57;;;;;;;7.80;7.00;;;;;;;7.52;62.91;101113.16;1040658;28;20825;-80
2022/04/12 00:55:31;;;;;;;12.10;8.48;;;;;;;7.55;62.99;101111.94;1038306;28;20303;-79
2022/04/12 00:56:03;;;;;;;11.98;8.15;;;;;;;7.40;63.18;101107.53;1040036;28;20781;-79
2022/04/12 00:56:35;;;;;;;8.75;7.85;;;;;;;7.42;63.11;101117.94;1041413;28;20332;-79
2022/04/12 00:57:07;;;;;;;8.73;7.15;;;;;;;7.41;63.47;101111.00;1038952;28;20308;-79
2022/04/12 00:57:39;;;;;;;8.88;7.47;;;;;;;7.39;63.37;101113.00;1035536;28;20309;-79
2022/04/12 00:58:11;;;;;;;11.90;7.38;;;;;;;7.38;63.74;101112.19;1035626;28;20296;-80
2022/04/12 00:58:46;;;;;;;7.90;7.07;;;;;;;7.42;63.21;101112.66;1038328;28;20311;-79
2022/04/12 00:59:19;;;;;;;9.82;8.82;;;;;;;7.32;63.95;101109.47;1041082;28;20793;-79
2022/04/12 00:59:51;;;;;;;9.02;7.53;;;;;;;7.30;63.74;101114.13;1040052;28;20300;-79
2022/04/12 01:00:24;;;;;;;8.27;7.53;;;;;;;7.29;63.95;101105.38;1036972;28;20304;-79
2022/04/12 01:00:56;;;;;;;8.85;8.02;;;;;;;7.32;64.06;101112.13;1043553;28;20300;-79
2022/04/12 01:01:28;;;;;;;8.98;8.07;;;;;;;7.36;63.85;101108.06;1040295;28;20292;-80
2022/04/12 01:02:03;;;;;;;8.45;7.57;;;;;;;7.32;63.87;101112.13;1047075;28;20295;-79
2022/04/12 01:02:35;;;;;;;9.48;7.80;;;;;;;7.23;64.36;101108.78;1043018;28;20380;-79
2022/04/12 01:03:07;;;;;;;9.38;8.02;;;;;;;7.28;64.30;101110.84;1047079;28;20302;-79
2022/04/12 01:03:38;;;;;;;8.70;7.50;;;;;;;7.28;64.45;101108.22;1043927;28;20287;-79
2022/04/12 01:04:10;;;;;;;8.00;7.20;;;;;;;7.29;64.28;101113.31;1044798;28;20299;-79
2022/04/12 01:04:41;;;;;;;9.13;8.02;;;;;;;7.18;64.54;101100.56;1043832;28;20318;-79
2022/04/12 01:05:13;;;;;;;9.95;7.47;;;;;;;7.23;64.50;101103.47;1046471;28;20305;-79
2022/04/12 01:05:47;;;;;;;8.57;7.78;;;;;;;7.14;64.28;101104.63;1044117;28;20295;-80
2022/04/12 01:06:18;;;;;;;12.57;7.75;;;;;;;7.22;64.27;101106.31;1046730;28;20322;-79
2022/04/12 01:06:50;;;;;;;11.15;7.90;;;;;;;7.23;64.30;101103.47;1050438;28;20333;-79
2022/04/12 01:07:22;;;;;;;10.00;7.90;;;;;;;7.25;64.39;101105.94;1048613;28;20294;-80
2022/04/12 01:07:54;;;;;;;8.25;7.45;;;;;;;7.29;64.12;101097.41;1040074;28;20315;-79
2022/04/12 01:08:26;;;;;;;7.90;7.18;;;;;;;7.25;64.34;101105.94;1036793;28;20335;-79
2022/04/12 01:08:58;;;;;;;11.00;8.23;;;;;;;7.31;64.04;101099.88;1037424;28;20296;-79
2022/04/12 01:09:29;;;;;;;11.15;7.35;;;;;;;7.29;64.28;101101.91;1042208;28;20338;-80
2022/04/12 01:10:02;;;;;;;7.90;7.15;;;;;;;7.21;64.48;101104.69;1041067;28;20674;-80
2022/04/12 01:10:34;;;;;;;9.93;7.75;;;;;;;7.30;64.50;101103.53;1036375;28;20301;-80
2022/04/12 01:11:10;;;;;;;12.35;7.63;;;;;;;7.36;63.95;101108.06;1036253;28;20307;-80
2022/04/12 01:11:47;;;;;;;13.93;7.43;;;;;;;7.39;63.95;101095.25;1042320;28;20297;-80
2022/04/12 01:12:21;;;;;;;10.48;8.38;;;;;;;7.31;63.81;101098.03;1052298;28;20302;-80
2022/04/12 01:12:53;;;;;;;11.73;8.00;;;;;;;7.36;63.98;101105.44;1056980;28;20814;-80
2022/04/12 01:13:24;;;;;;;8.70;7.85;;;;;;;7.35;63.81;101101.13;1054655;28;20305;-80
2022/04/12 01:13:56;;;;;;;9.63;7.97;;;;;;;7.42;63.69;101108.16;1052911;28;20660;-80
2022/04/12 01:14:27;;;;;;;9.93;7.50;;;;;;;7.43;63.62;101099.22;1053097;28;20663;-80
2022/04/12 01:15:22;;;;;;;8.38;7.57;;;;;;;7.46;63.24;101097.19;1053071;28;20305;-80
2022/04/12 01:15:55;;;;;;;8.82;6.47;;;;;;;7.36;63.57;101097.47;1046899;28;20287;-79
2022/04/12 01:16:27;;;;;;;8.18;7.38;;;;;;;7.29;63.67;101097.41;1043894;28;20310;-79
2022/04/12 01:17:03;;;;;;;9.63;7.40;;;;;;;7.23;64.18;101098.19;1047170;28;20308;-79
2022/04/12 01:17:35;;;;;;;7.53;6.70;;;;;;;7.36;63.61;101098.28;1041381;28;20304;-79
2022/04/12 01:18:06;;;;;;;8.82;7.15;;;;;;;7.33;63.48;101109.28;1045758;28;20835;-80
2022/04/12 01:18:40;;;;;;;8.43;7.50;;;;;;;7.28;63.90;101110.84;1047378;28;20341;-80
2022/04/12 01:19:11;;;;;;;11.25;7.65;;;;;;;7.36;63.69;101106.25;1041548;28;20311;-80
2022/04/12 01:19:43;;;;;;;9.00;7.28;;;;;;;7.33;64.09;101103.16;1048653;28;20722;-80
2022/04/12 01:20:17;;;;;;;8.30;7.45;;;;;;;7.38;63.82;101103.41;1044376;28;20792;-80
2022/04/12 01:20:49;;;;;;;9.95;7.93;;;;;;;7.36;63.62;101100.13;1042052;28;20304;-80
2022/04/12 01:21:20;;;;;;;9.80;7.55;;;;;;;7.38;63.51;101106.88;1048671;28;20646;-80
2022/04/12 01:21:56;;;;;;;12.20;8.10;;;;;;;7.36;63.73;101100.13;1044424;28;20299;-80
2022/04/12 01:22:27;;;;;;;13.52;7.82;;;;;;;7.32;63.73;101101.53;1040955;28;20292;-80
2022/04/12 01:23:12;;;;;;;10.38;7.93;;;;;;;7.22;63.83;101103.66;1042841;28;20310;-80
2022/04/12 01:27:02;;;;;;;8.48;6.30;;;;;;;7.37;64.31;101096.47;1045934;28;20694;-80
2022/04/12 01:27:34;;;;;;;8.60;5.57;;;;;;;7.41;63.77;101092.47;1044710;28;20776;-80
2022/04/12 01:28:07;;;;;;;8.15;6.07;;;;;;;7.33;63.72;101090.72;1044778;28;20653;-80
2022/04/12 01:28:43;;;;;;;7.47;6.38;;;;;;;7.29;64.16;101092.13;1049857;28;20346;-80
2022/04/12 01:29:15;;;;;;;7.15;6.45;;;;;;;7.29;63.95;101086.00;1052831;28;20789;-80
2022/04/12 01:29:48;;;;;;;8.35;6.30;;;;;;;7.25;63.78;101085.56;1048458;28;20372;-80
2022/04/12 01:30:20;;;;;;;9.05;6.70;;;;;;;7.25;63.81;101090.84;1049938;28;20324;-80
2022/04/12 01:30:52;;;;;;;10.48;6.90;;;;;;;7.21;64.00;101086.13;1052751;28;20855;-80
2022/04/12 01:31:25;;;;;;;8.18;7.38;;;;;;;7.11;64.48;101089.88;1052639;28;20301;-80
2022/04/12 01:31:56;;;;;;;8.90;6.82;;;;;;;7.19;64.85;101090.81;1045350;28;20445;-80
2022/04/12 01:32:28;;;;;;;7.22;6.07;;;;;;;7.10;64.54;101090.91;1044485;28;20283;-80
2022/04/12 01:33:00;;;;;;;10.98;7.20;;;;;;;7.11;64.45;101083.75;1040340;28;20318;-80
2022/04/12 01:33:31;;;;;;;11.43;7.30;;;;;;;6.97;65.30;101093.41;1041279;28;20682;-80
2022/04/12 01:34:03;;;;;;;8.88;7.07;;;;;;;6.97;64.88;101088.09;1044957;28;20295;-80
2022/04/12 01:34:35;;;;;;;8.05;7.13;;;;;;;6.99;64.84;101080.78;1049204;28;20287;-80
2022/04/12 01:35:07;;;;;;;9.80;6.47;;;;;;;7.00;65.34;101082.44;1040159;28;20789;-81
2022/04/12 01:35:39;;;;;;;8.20;6.78;;;;;;;7.10;64.62;101088.25;1040820;28;20288;-80
2022/04/12 01:36:10;;;;;;;10.13;6.70;;;;;;;6.97;65.07;101082.00;1036144;28;20799;-80
2022/04/12 01:40:33;;;;;;;8.00;6.47;;;;;;;7.03;65.16;101075.94;1046459;28;20299;-79
2022/04/12 01:41:07;;;;;;;9.23;6.60;;;;;;;7.10;64.79;101072.34;1044374;28;20306;-79
2022/04/12 01:41:39;;;;;;;6.63;5.90;;;;;;;7.03;65.11;101076.75;1040351;28;20464;-79
2022/04/12 01:42:10;;;;;;;6.47;5.88;;;;;;;7.08;64.76;101074.38;1035906;28;20818;-80
2022/04/12 01:42:42;;;;;;;10.15;6.82;;;;;;;7.13;64.72;101068.53;1043094;28;20769;-80
2022/04/12 01:43:14;;;;;;;8.73;7.53;;;;;;;7.08;65.02;101074.38;1032051;28;20380;-79
2022/04/12 01:43:45;;;;;;;9.63;7.03;;;;;;;6.98;65.27;101073.03;1028194;28;20294;-80
2022/04/12 01:44:17;;;;;;;13.13;7.65;;;;;;;6.97;65.26;101076.69;1029107;28;20308;-80
2022/04/12 01:44:49;;;;;;;11.90;7.55;;;;;;;6.99;65.16;101075.50;1036267;28;20758;-80
2022/04/12 01:45:21;;;;;;;9.75;7.90;;;;;;;7.00;65.14;101082.44;1033169;28;20787;-80
2022/04/12 01:45:53;;;;;;;8.90;7.60;;;;;;;6.98;65.04;101079.16;1040179;28;20330;-80
2022/04/12 01:46:24;;;;;;;9.32;6.43;;;;;;;7.03;65.42;101078.59;1036057;28;20329;-80
2022/04/12 01:46:56;;;;;;;9.63;6.45;;;;;;;6.95;65.23;101074.25;1027960;28;20310;-80
2022/04/12 01:47:28;;;;;;;8.63;6.88;;;;;;;7.07;64.88;101072.72;1032091;28;20296;-80
2022/04/12 01:47:59;;;;;;;9.77;6.20;;;;;;;7.11;64.49;101067.88;1032388;28;20811;-80
2022/04/12 01:48:31;;;;;;;8.43;7.43;;;;;;;7.09;64.64;101070.72;1038344;28;20297;-80
2022/04/12 01:49:02;;;;;;;9.88;6.57;;;;;;;7.19;64.19;101070.44;1045509;28;20279;-80
2022/04/12 01:49:34;;;;;;;9.00;6.60;;;;;;;7.16;64.49;101069.97;1036443;28;20307;-81
2022/04/12 01:50:06;;;;;;;6.90;6.25;;;;;;;7.17;64.25;101067.16;1036316;28;20647;-80
2022/04/12 01:50:38;;;;;;;7.80;7.00;;;;;;;7.13;64.22;101072.00;1032691;28;20335;-80
2022/04/12 01:51:09;;;;;;;8.27;6.78;;;;;;;7.11;64.29;101065.22;1036053;28;20687;-79
2022/04/12 01:51:42;;;;;;;8.23;7.10;;;;;;;7.12;64.52;101070.38;1040262;28;20361;-80
2022/04/12 01:52:15;;;;;;;7.75;6.95;;;;;;;7.11;64.46;101071.34;1040254;28;20718;-79
2022/04/12 01:52:46;;;;;;;11.25;7.03;;;;;;;7.19;64.17;101069.59;1043524;28;20338;-79
2022/04/12 01:53:18;;;;;;;9.18;7.35;;;;;;;7.30;63.92;101055.84;1044591;28;20303;-79
2022/04/12 01:53:49;;;;;;;9.75;7.15;;;;;;;7.25;64.29;101066.19;1039215;28;20297;-79
2022/04/12 01:54:21;;;;;;;10.15;8.02;;;;;;;7.23;64.42;101052.31;1040185;28;20300;-79
2022/04/12 01:54:52;;;;;;;9.10;6.72;;;;;;;7.27;63.78;101061.53;1041239;28;20649;-80
2022/04/12 01:55:24;;;;;;;9.82;7.63;;;;;;;7.35;63.84;101061.38;1041049;28;20377;-80
2022/04/12 01:55:55;;;;;;;8.77;7.55;;;;;;;7.29;64.14;101059.50;1048396;28;20305;-80
2022/04/12 01:56:28;;;;;;;9.98;7.82;;;;;;;7.24;64.20;101061.91;1044383;28;20307;-80
2022/04/12 01:56:59;;;;;;;10.27;8.07;;;;;;;7.15;64.66;101068.34;1044765;28;20295;-80
2022/04/12 01:57:31;;;;;;;10.07;7.38;;;;;;;7.14;64.70;101064.88;1045044;28;20294;-80
2022/04/12 01:58:04;;;;;;;11.80;7.65;;;;;;;7.13;64.87;101065.88;1049068;28;20292;-80
2022/04/12 01:58:38;;;;;;;10.98;7.72;;;;;;;6.97;65.18;101066.94;1048483;28;20645;-80
2022/04/12 01:59:09;;;;;;;8.63;7.18;;;;;;;7.01;65.26;101068.19;1049442;28;20297;-80
2022/04/12 01:59:42;;;;;;;10.85;8.27;;;;;;;7.07;64.97;101071.91;1052687;28;20779;-80
2022/04/12 02:00:14;;;;;;;8.77;7.40;;;;;;;7.05;64.92;101069.44;1049574;28;20294;-79
2022/04/12 02:00:45;;;;;;;10.95;7.85;;;;;;;7.11;64.79;101078.47;1044340;28;20638;-79
2022/04/12 02:01:17;;;;;;;9.68;7.30;;;;;;;7.04;64.80;101067.00;1044384;28;20378;-80
2022/04/12 02:01:49;;;;;;;8.45;7.30;;;;;;;7.02;64.93;101069.81;1045141;28;20732;-80
2022/04/12 02:02:20;;;;;;;8.93;7.28;;;;;;;7.13;64.82;101072.00;1043897;28;20314;-80
2022/04/12 02:02:52;;;;;;;7.80;7.00;;;;;;;7.07;64.57;101067.44;1048483;28;20287;-80
2022/04/12 02:03:24;;;;;;;9.40;7.47;;;;;;;7.12;64.45;101058.91;1048532;28;20455;-80
2022/04/12 02:03:56;;;;;;;10.13;7.25;;;;;;;7.15;64.38;101058.56;1045617;28;20299;-80
2022/04/12 02:04:27;;;;;;;8.30;7.47;;;;;;;7.12;64.62;101069.50;1047951;28;20452;-79
2022/04/12 02:04:59;;;;;;;12.52;8.15;;;;;;;7.15;64.87;101068.34;1050437;28;20688;-80
2022/04/12 02:05:33;;;;;;;7.78;6.88;;;;;;;7.15;65.15;101068.34;1045418;28;20310;-79
2022/04/12 02:06:05;;;;;;;8.43;7.35;;;;;;;7.12;65.08;101066.88;1048817;28;20297;-80
2022/04/12 02:06:37;;;;;;;8.25;7.47;;;;;;;6.97;64.99;101069.56;1046173;28;20307;-80
2022/04/12 02:07:09;;;;;;;8.75;7.85;;;;;;;7.05;64.99;101064.16;1044358;28;20306;-80
2022/04/12 02:07:43;;;;;;;11.00;8.00;;;;;;;7.07;64.54;101067.44;1044311;28;20665;-79
2022/04/12 02:08:15;;;;;;;8.88;8.00;;;;;;;6.98;65.05;101065.91;1045152;28;20287;-80
2022/04/12 02:08:46;;;;;;;8.38;7.25;;;;;;;7.03;65.15;101065.34;1046049;28;20657;-80
2022/04/12 02:09:18;;;;;;;10.25;7.25;;;;;;;6.99;65.36;101070.19;1052609;28;20297;-80
2022/04/12 02:09:49;;;;;;;10.05;7.15;;;;;;;7.01;65.20;101070.00;1048410;28;20305;-80
2022/04/12 02:10:22;;;;;;;9.82;7.97;;;;;;;6.98;65.27;101067.75;1048902;28;20301;-80
2022/04/12 02:10:53;;;;;;;8.05;7.20;;;;;;;6.95;65.26;101058.34;1052580;28;20297;-80
2022/04/12 02:11:25;;;;;;;10.45;7.90;;;;;;;6.95;65.35;101073.41;1050240;28;20308;-80
2022/04/12 02:11:58;;;;;;;9.25;8.32;;;;;;;6.95;65.43;101071.59;1048399;28;20660;-80
2022/04/12 02:12:29;;;;;;;8.75;7.25;;;;;;;6.96;65.32;101059.16;1048381;28;20298;-80
2022/04/12 02:13:01;;;;;;;8.98;7.90;;;;;;;6.85;65.59;101072.88;1040159;28;20291;-80
2022/04/12 02:13:33;;;;;;;10.38;7.65;;;;;;;6.92;65.57;101065.84;1044937;28;20307;-80
2022/04/12 02:14:06;;;;;;;7.68;6.88;;;;;;;7.02;64.69;101053.94;1048443;28;20279;-79
2022/04/12 02:14:38;;;;;;;9.25;7.97;;;;;;;7.11;65.24;101062.56;1045752;28;20302;-80
2022/04/12 02:15:10;;;;;;;7.47;6.78;;;;;;;7.14;64.62;101059.56;1047609;28;20302;-80
2022/04/12 02:15:42;;;;;;;9.20;7.97;;;;;;;7.10;65.03;101060.94;1040101;28;20296;-80
2022/04/12 02:16:15;;;;;;;7.35;6.68;;;;;;;7.09;64.71;101049.53;1040344;28;20383;-80
2022/04/12 02:16:46;;;;;;;8.88;8.07;;;;;;;6.96;65.09;101060.00;1040227;28;20303;-80
2022/04/12 02:17:18;;;;;;;10.43;7.88;;;;;;;6.97;65.51;101061.63;1041178;28;20280;-81
2022/04/12 02:17:50;;;;;;;8.32;7.38;;;;;;;6.95;65.43;101050.41;1044623;28;20298;-80
2022/04/12 02:18:21;;;;;;;9.68;7.55;;;;;;;7.02;65.23;101056.59;1044573;28;20316;-80
2022/04/12 02:18:53;;;;;;;8.00;7.03;;;;;;;7.06;64.39;101047.25;1044278;28;20299;-81
2022/04/12 02:19:24;;;;;;;8.75;7.43;;;;;;;7.00;64.96;101055.97;1044374;28;20279;-80
2022/04/12 02:19:56;;;;;;;11.77;8.43;;;;;;;6.99;65.03;101059.63;1044283;28;20310;-80
2022/04/12 02:20:27;;;;;;;9.27;7.90;;;;;;;7.01;65.02;101052.28;1045706;28;20808;-80
2022/04/12 02:20:59;;;;;;;10.13;7.70;;;;;;;7.06;64.73;101052.56;1046189;28;20290;-80
2022/04/12 02:21:30;;;;;;;11.65;7.95;;;;;;;7.04;64.50;101053.75;1044380;28;20287;-80
2022/04/12 02:22:02;;;;;;;11.38;7.13;;;;;;;7.06;64.79;101054.38;1043194;28;20303;-80
2022/04/12 02:22:35;;;;;;;9.63;7.63;;;;;;;7.10;63.78;101045.03;1042068;28;20279;-80
2022/04/12 02:23:06;;;;;;;8.98;8.00;;;;;;;7.11;64.99;101044.84;1040785;28;20315;-81
2022/04/12 02:23:38;;;;;;;10.70;6.88;;;;;;;7.16;64.30;101054.09;1040538;28;20304;-80
2022/04/12 02:24:09;;;;;;;12.55;7.57;;;;;;;7.20;64.26;101048.22;1040010;28;20362;-80
2022/04/12 02:24:41;;;;;;;8.82;6.65;;;;;;;7.16;64.27;101054.91;1040515;28;20296;-79
2022/04/12 02:25:12;;;;;;;7.97;7.18;;;;;;;7.18;63.70;101044.13;1044654;28;20291;-80
2022/04/12 02:25:44;;;;;;;8.57;7.47;;;;;;;7.18;64.06;101049.41;1040398;28;20307;-80
2022/04/12 02:26:16;;;;;;;10.68;7.85;;;;;;;7.09;64.63;101054.00;1044155;28;20295;-80
2022/04/12 02:26:47;;;;;;;9.55;7.55;;;;;;;7.03;64.47;101055.56;1047921;28;20294;-79
2022/04/12 02:27:20;;;;;;;11.43;7.07;;;;;;;7.08;64.14;101050.53;1046441;28;20657;-79
2022/04/12 02:27:52;;;;;;;9.13;7.00;;;;;;;7.21;63.82;101054.34;1047447;28;20663;-79
2022/04/12 02:28:24;;;;;;;9.30;7.55;;;;;;;7.12;64.08;101056.28;1048925;28;20305;-80
2022/04/12 02:28:55;;;;;;;11.40;7.90;;;;;;;7.02;64.86;101056.59;1050373;28;20345;-79
2022/04/12 02:29:27;;;;;;;9.20;7.85;;;;;;;6.99;64.89;101064.91;1045575;28;20362;-79
2022/04/12 02:29:58;;;;;;;11.75;7.60;;;;;;;6.97;65.02;101066.94;1041950;28;20331;-80
2022/04/12 02:30:30;;;;;;;9.13;7.68;;;;;;;6.98;65.29;101068.56;1039858;28;20292;-79
2022/04/12 02:31:02;;;;;;;8.38;7.47;;;;;;;6.93;65.21;101064.84;1039320;28;20299;-79
2022/04/12 02:31:33;;;;;;;8.65;7.47;;;;;;;6.94;64.82;101062.00;1044003;28;20300;-80
2022/04/12 02:32:06;;;;;;;7.72;6.88;;;;;;;6.89;65.02;101061.75;1044605;28;20311;-79
2022/04/12 02:32:39;;;;;;;9.63;7.90;;;;;;;6.84;65.35;101069.41;1040436;28;20343;-79
2022/04/12 02:33:10;;;;;;;8.45;7.45;;;;;;;6.81;65.73;101064.47;1046310;28;20788;-79
2022/04/12 02:33:42;;;;;;;9.05;7.90;;;;;;;6.86;65.25;101064.78;1044318;28;20309;-79
2022/04/12 02:34:14;;;;;;;8.05;7.25;;;;;;;6.89;65.16;101072.34;1049932;28;20295;-79
2022/04/12 02:34:45;;;;;;;8.10;7.22;;;;;;;6.85;65.05;101070.22;1051920;28;20362;-79
2022/04/12 02:35:17;;;;;;;9.60;7.40;;;;;;;6.92;65.34;101066.66;1052572;28;20718;-79
2022/04/12 02:35:48;;;;;;;7.50;6.80;;;;;;;6.95;65.16;101068.94;1043912;28;20287;-80
2022/04/12 02:36:20;;;;;;;9.73;8.02;;;;;;;6.91;65.27;101072.97;1043390;28;20299;-79
2022/04/12 02:36:51;;;;;;;8.40;7.32;;;;;;;6.96;65.29;101069.75;1046397;28;20291;-79
2022/04/12 02:37:23;;;;;;;8.95;8.02;;;;;;;6.91;65.63;101069.50;1041632;28;20365;-79
2022/04/12 02:37:54;;;;;;;7.63;6.85;;;;;;;6.95;64.94;101066.28;1047860;28;20838;-79
2022/04/12 02:38:26;;;;;;;8.00;6.55;;;;;;;6.89;65.22;101068.88;1045595;28;20313;-79
2022/04/12 02:38:58;;;;;;;8.40;6.95;;;;;;;6.83;65.20;101071.22;1045898;28;20318;-79
2022/04/12 02:39:29;;;;;;;11.15;7.75;;;;;;;6.80;65.50;101061.03;1040107;28;20308;-79
2022/04/12 02:40:02;;;;;;;8.20;7.15;;;;;;;6.80;65.67;101070.78;1042273;28;20418;-80
2022/04/12 02:40:34;;;;;;;8.50;7.53;;;;;;;6.76;65.82;101061.56;1043631;28;20347;-79
2022/04/12 02:41:07;;;;;;;8.18;7.13;;;;;;;6.73;65.74;101059.31;1042566;28;20370;-80